Time;durP1;ratioP1;P1;durP2;ratioP2;P2;SDS_P1;SDS_P2;PMS_P1;PMS_P2;Temp;Humidity;BMP_temperature;BMP_pressure;BME280_temperature;BME280_humidity;BME280_pressure;Samples;Min_cycle;Max_cycle;Signal;HPM_P1;HPM_P2
2021/03/13 00:00:01;;;;;;;3.00;0.60;;;6.60;84.70;;;;;;5061983;28;20032;-60
2021/03/13 00:02:38;;;;;;;1.63;0.65;;;6.60;85.10;;;;;;5062673;28;20129;-60
2021/03/13 00:05:05;;;;;;;1.70;1.00;;;6.60;85.40;;;;;;5061322;28;20068;-60
2021/03/13 00:07:30;;;;;;;4.68;1.13;;;6.70;85.30;;;;;;5061597;28;20037;-60
2021/03/13 00:09:56;;;;;;;0.77;0.70;;;6.70;85.00;;;;;;5062229;28;20046;-60
2021/03/13 00:12:23;;;;;;;1.48;1.05;;;6.60;85.40;;;;;;5060905;28;20055;-60
2021/03/13 00:14:48;;;;;;;2.25;0.90;;;6.60;85.90;;;;;;5061725;28;20661;-60
2021/03/13 00:17:14;;;;;;;3.22;0.68;;;6.60;86.00;;;;;;5061784;28;20035;-60
2021/03/13 00:19:40;;;;;;;1.60;0.90;;;6.50;86.30;;;;;;5061722;28;20633;-60
2021/03/13 00:22:05;;;;;;;4.60;1.00;;;6.50;86.10;;;;;;5061502;28;20040;-60
2021/03/13 00:24:31;;;;;;;4.72;1.10;;;6.40;86.40;;;;;;5061098;28;20054;-60
2021/03/13 00:26:56;;;;;;;2.55;0.82;;;6.20;87.20;;;;;;5060941;28;20090;-60
2021/03/13 00:29:22;;;;;;;5.18;1.67;;;6.40;87.40;;;;;;5062507;28;20548;-61
2021/03/13 00:31:52;;;;;;;3.78;1.02;;;6.40;86.60;;;;;;5063809;28;20024;-60
2021/03/13 00:34:19;;;;;;;1.63;0.90;;;6.50;86.80;;;;;;5063230;28;20111;-60
2021/03/13 00:36:45;;;;;;;5.25;1.23;;;6.40;86.80;;;;;;5062491;28;20029;-60
2021/03/13 00:39:11;;;;;;;3.45;0.90;;;6.40;86.90;;;;;;5059504;28;20784;-60
2021/03/13 00:41:37;;;;;;;1.65;0.90;;;6.40;86.70;;;;;;5059656;28;20039;-60
2021/03/13 00:44:03;;;;;;;1.10;0.70;;;6.50;86.50;;;;;;5060855;28;20316;-60
2021/03/13 00:46:28;;;;;;;2.03;1.10;;;6.50;86.10;;;;;;5059609;28;20105;-60
2021/03/13 00:48:55;;;;;;;1.85;0.90;;;6.40;86.10;;;;;;5059080;28;20449;-62
2021/03/13 00:51:20;;;;;;;2.67;0.80;;;6.40;87.00;;;;;;5060405;28;20022;-62
2021/03/13 00:53:46;;;;;;;1.83;1.00;;;6.40;86.80;;;;;;5058073;28;20855;-62
2021/03/13 00:56:12;;;;;;;5.78;1.30;;;6.40;86.40;;;;;;5058041;28;20045;-62
2021/03/13 00:58:38;;;;;;;3.75;0.90;;;6.40;86.80;;;;;;5061143;28;20170;-62
2021/03/13 01:01:04;;;;;;;3.35;0.80;;;6.40;87.10;;;;;;5059972;28;20025;-62
2021/03/13 01:03:34;;;;;;;4.00;1.23;;;6.30;87.00;;;;;;5058983;28;20032;-61
2021/03/13 01:06:01;;;;;;;3.35;1.10;;;6.40;86.70;;;;;;5059960;28;20025;-62
2021/03/13 01:08:30;;;;;;;2.42;1.30;;;6.40;86.70;;;;;;5059550;28;20037;-62
2021/03/13 01:11:10;;;;;;;1.42;0.93;;;6.50;86.90;;;;;;5060615;28;20163;-62
2021/03/13 01:13:42;;;;;;;4.28;1.30;;;6.50;85.90;;;;;;5059335;28;20028;-62
2021/03/13 01:16:08;;;;;;;1.35;1.10;;;6.60;86.30;;;;;;5061646;28;20052;-61
2021/03/13 01:18:34;;;;;;;2.47;1.13;;;6.60;85.70;;;;;;5059108;28;20036;-61
2021/03/13 01:21:03;;;;;;;4.07;1.30;;;6.70;85.10;;;;;;5060547;28;20134;-61
2021/03/13 01:23:37;;;;;;;1.23;0.95;;;6.70;84.90;;;;;;5061036;28;20089;-62
2021/03/13 01:26:03;;;;;;;2.42;0.88;;;6.50;85.70;;;;;;5058926;28;20034;-61
2021/03/13 01:28:29;;;;;;;1.88;1.00;;;6.40;85.90;;;;;;5059916;28;20094;-62
2021/03/13 01:30:55;;;;;;;1.52;0.80;;;6.40;85.70;;;;;;5059454;28;20048;-62
2021/03/13 01:33:20;;;;;;;2.28;0.90;;;6.30;85.90;;;;;;5060554;28;20450;-61
2021/03/13 01:35:46;;;;;;;2.13;1.25;;;6.30;86.00;;;;;;5058846;28;20518;-61
2021/03/13 01:38:12;;;;;;;5.53;1.55;;;6.40;86.40;;;;;;5059717;28;20453;-61
2021/03/13 01:40:39;;;;;;;1.38;1.10;;;6.40;85.80;;;;;;5059260;28;20077;-61
2021/03/13 01:43:05;;;;;;;4.60;1.30;;;6.40;85.70;;;;;;5060734;28;20036;-61
2021/03/13 01:45:31;;;;;;;2.38;1.60;;;6.40;85.60;;;;;;5058993;28;20020;-61
2021/03/13 01:47:59;;;;;;;2.30;1.27;;;6.40;85.60;;;;;;5060537;28;20497;-61
2021/03/13 01:50:27;;;;;;;1.92;1.10;;;6.40;85.50;;;;;;5059050;28;20040;-61
2021/03/13 01:52:54;;;;;;;2.95;1.60;;;6.20;85.80;;;;;;5056925;28;20025;-61
2021/03/13 01:55:26;;;;;;;2.50;1.33;;;6.10;86.10;;;;;;5054018;28;20029;-61
2021/03/13 01:57:57;;;;;;;3.95;1.27;;;6.10;86.30;;;;;;5055949;28;20036;-61
2021/03/13 02:00:27;;;;;;;6.55;1.48;;;6.20;86.00;;;;;;5055060;28;20054;-62
2021/03/13 02:02:56;;;;;;;1.60;1.05;;;6.20;86.40;;;;;;5055830;28;20056;-61
2021/03/13 02:05:27;;;;;;;2.22;1.25;;;6.20;86.30;;;;;;5056067;28;20556;-61
2021/03/13 02:08:04;;;;;;;3.60;1.40;;;6.20;85.60;;;;;;5055797;28;20040;-62
2021/03/13 02:11:02;;;;;;;2.72;1.45;;;6.30;85.30;;;;;;5054701;28;20071;-62
2021/03/13 02:13:37;;;;;;;3.00;1.55;;;6.30;85.60;;;;;;5046634;28;20044;-61
2021/03/13 02:16:36;;;;;;;4.47;1.67;;;6.50;84.70;;;;;;5054291;28;20035;-61
2021/03/13 02:19:08;;;;;;;3.42;1.42;;;6.50;84.40;;;;;;5055606;28;20373;-61
2021/03/13 02:21:48;;;;;;;3.13;1.58;;;6.60;84.10;;;;;;5056124;28;20120;-61
2021/03/13 02:24:29;;;;;;;2.15;1.23;;;6.70;83.60;;;;;;5054841;28;20109;-61
2021/03/13 02:27:04;;;;;;;3.33;1.60;;;6.70;83.80;;;;;;5053793;28;20043;-61
2021/03/13 02:29:55;;;;;;;3.55;1.85;;;6.70;83.10;;;;;;5056216;28;20109;-61
2021/03/13 02:33:32;;;;;;;3.13;2.10;;;6.60;83.00;;;;;;5056005;28;20042;-61
2021/03/13 02:36:15;;;;;;;5.70;1.75;;;6.60;84.00;;;;;;5054362;28;20040;-61
2021/03/13 02:39:16;;;;;;;2.85;1.70;;;6.40;84.50;;;;;;5055788;28;20040;-62
2021/03/13 02:41:57;;;;;;;6.43;1.83;;;6.40;84.30;;;;;;5055283;28;20428;-61
2021/03/13 02:44:24;;;;;;;3.20;1.38;;;6.40;84.30;;;;;;5057449;28;20060;-61
2021/03/13 02:47:00;;;;;;;2.40;1.50;;;6.40;84.70;;;;;;5053718;28;20037;-62
2021/03/13 02:49:37;;;;;;;6.45;2.28;;;6.20;84.20;;;;;;5054066;28;20068;-61
2021/03/13 02:52:11;;;;;;;2.75;1.67;;;6.30;84.50;;;;;;5053757;28;20035;-61
2021/03/13 02:54:47;;;;;;;1.70;1.20;;;6.20;84.80;;;;;;5046463;28;20063;-61
2021/03/13 02:57:16;;;;;;;4.40;1.67;;;6.10;84.80;;;;;;5053822;28;20090;-62
2021/03/13 02:59:45;;;;;;;2.95;1.30;;;6.10;84.60;;;;;;5054446;28;20037;-61
2021/03/13 03:02:16;;;;;;;3.33;1.58;;;6.00;85.20;;;;;;5054731;28;20107;-60
2021/03/13 03:04:43;;;;;;;2.30;1.50;;;5.90;86.00;;;;;;5053755;28;20033;-60
2021/03/13 03:07:11;;;;;;;2.83;1.33;;;5.90;86.10;;;;;;5053386;28;20580;-60
2021/03/13 03:09:39;;;;;;;1.77;1.30;;;5.90;85.50;;;;;;5053575;28;20436;-60
2021/03/13 03:12:09;;;;;;;1.73;1.33;;;6.00;85.40;;;;;;5051593;28;20546;-60
2021/03/13 03:14:41;;;;;;;2.53;1.55;;;6.00;85.10;;;;;;5055190;28;20028;-60
2021/03/13 03:17:08;;;;;;;3.33;1.35;;;6.00;85.30;;;;;;5056965;28;20493;-60
2021/03/13 03:19:41;;;;;;;2.38;1.60;;;6.00;84.20;;;;;;5057465;28;20035;-60
2021/03/13 03:22:12;;;;;;;2.33;1.23;;;6.00;84.90;;;;;;5058221;28;20501;-60
2021/03/13 03:24:42;;;;;;;3.40;1.40;;;6.00;85.20;;;;;;5056954;28;20060;-60
2021/03/13 03:27:07;;;;;;;3.67;1.30;;;6.00;84.60;;;;;;5059084;28;20039;-60
2021/03/13 03:29:37;;;;;;;4.78;1.70;;;6.00;84.30;;;;;;5056939;28;20032;-60
2021/03/13 03:32:04;;;;;;;3.10;1.45;;;6.00;83.90;;;;;;5057180;28;20052;-60
2021/03/13 03:34:30;;;;;;;1.25;1.08;;;5.90;84.50;;;;;;5058745;28;20688;-60
2021/03/13 03:36:58;;;;;;;1.20;1.10;;;5.90;84.10;;;;;;5056047;28;20566;-60
2021/03/13 03:39:24;;;;;;;4.10;1.30;;;5.80;84.10;;;;;;5058340;28;20036;-60
2021/03/13 03:41:53;;;;;;;1.73;1.10;;;5.80;83.90;;;;;;5056755;28;20032;-60
2021/03/13 03:44:25;;;;;;;4.90;1.27;;;5.70;84.40;;;;;;5058535;28;20032;-60
2021/03/13 03:46:59;;;;;;;1.35;0.98;;;5.70;84.50;;;;;;5040401;28;20082;-61
2021/03/13 03:49:30;;;;;;;5.40;1.60;;;5.60;84.70;;;;;;5056988;28;20024;-60
2021/03/13 03:52:11;;;;;;;4.28;1.63;;;5.60;84.60;;;;;;5056627;28;20826;-60
2021/03/13 03:54:39;;;;;;;2.22;1.10;;;5.60;84.80;;;;;;5056559;28;20238;-60
2021/03/13 03:57:10;;;;;;;2.67;1.30;;;5.60;85.10;;;;;;5056608;28;20024;-60
2021/03/13 03:59:39;;;;;;;6.03;1.38;;;5.70;84.80;;;;;;5055594;28;20028;-61
2021/03/13 04:02:05;;;;;;;2.58;1.10;;;5.70;84.40;;;;;;5057780;28;20033;-60
2021/03/13 04:04:32;;;;;;;3.92;1.17;;;5.70;84.40;;;;;;5057646;28;20152;-60
2021/03/13 04:06:58;;;;;;;2.47;1.20;;;5.70;84.10;;;;;;5058154;28;20107;-60
2021/03/13 04:09:26;;;;;;;4.97;1.30;;;5.60;84.30;;;;;;5057018;28;20041;-60
2021/03/13 04:11:54;;;;;;;2.88;1.20;;;5.60;85.00;;;;;;5036548;28;20096;-60
2021/03/13 04:14:20;;;;;;;2.65;1.00;;;5.60;84.50;;;;;;5055168;28;20724;-60
2021/03/13 04:16:47;;;;;;;1.52;1.10;;;5.70;84.60;;;;;;5056781;28;20033;-60
2021/03/13 04:19:13;;;;;;;3.72;1.15;;;5.60;84.00;;;;;;5057398;28;20036;-61
2021/03/13 04:21:40;;;;;;;1.30;1.20;;;5.70;83.70;;;;;;5056377;28;20136;-60
2021/03/13 04:24:07;;;;;;;3.17;1.13;;;5.70;84.10;;;;;;5056799;28;20033;-61
2021/03/13 04:26:34;;;;;;;2.42;1.20;;;5.70;83.90;;;;;;5056450;28;20028;-60
2021/03/13 04:29:00;;;;;;;2.47;1.20;;;5.70;84.10;;;;;;5057729;28;20037;-60
2021/03/13 04:31:31;;;;;;;2.65;1.10;;;5.80;84.00;;;;;;5063841;28;20377;-63
2021/03/13 04:33:58;;;;;;;4.43;1.05;;;5.90;83.30;;;;;;5052878;28;20710;-60
2021/03/13 04:36:29;;;;;;;2.75;1.05;;;5.90;83.20;;;;;;5057504;28;20116;-60
2021/03/13 04:38:58;;;;;;;2.47;1.10;;;6.00;83.20;;;;;;5059294;28;20040;-60
2021/03/13 04:41:26;;;;;;;2.42;1.15;;;6.10;82.70;;;;;;5067086;28;20032;-61
2021/03/13 04:43:53;;;;;;;2.05;0.90;;;6.00;82.60;;;;;;5063956;28;20112;-61
2021/03/13 04:46:20;;;;;;;0.80;0.80;;;6.00;82.50;;;;;;5062547;28;20473;-60
2021/03/13 04:48:46;;;;;;;1.98;1.00;;;6.00;82.80;;;;;;5073602;28;20142;-60
2021/03/13 04:51:14;;;;;;;1.35;1.08;;;6.00;82.80;;;;;;5065509;28;20143;-60
2021/03/13 04:53:40;;;;;;;4.75;1.20;;;5.90;82.30;;;;;;5069848;28;20086;-60
2021/03/13 04:56:06;;;;;;;1.10;1.00;;;6.00;82.50;;;;;;5071201;28;20517;-60
2021/03/13 04:58:32;;;;;;;2.03;0.85;;;5.90;82.90;;;;;;5064846;28;20047;-60
2021/03/13 05:00:57;;;;;;;1.63;0.98;;;5.90;82.90;;;;;;5068965;28;20036;-61
2021/03/13 05:03:23;;;;;;;2.22;1.20;;;6.00;83.10;;;;;;5063525;28;20105;-60
2021/03/13 05:05:49;;;;;;;4.22;1.25;;;5.90;83.00;;;;;;5064988;28;20028;-60
2021/03/13 05:08:15;;;;;;;1.80;1.20;;;5.90;82.90;;;;;;5067495;28;20032;-60
2021/03/13 05:10:40;;;;;;;2.80;1.10;;;5.90;82.80;;;;;;5064514;28;20036;-60
2021/03/13 05:13:06;;;;;;;5.03;1.63;;;6.00;82.80;;;;;;5060232;28;20025;-60
2021/03/13 05:15:31;;;;;;;2.50;1.00;;;6.00;82.80;;;;;;5062131;28;20903;-60
2021/03/13 05:17:57;;;;;;;4.00;1.00;;;5.90;83.30;;;;;;5066903;28;20085;-60
2021/03/13 05:20:23;;;;;;;1.63;1.00;;;5.90;83.20;;;;;;5052636;28;20029;-60
2021/03/13 05:22:49;;;;;;;3.40;1.33;;;6.00;83.30;;;;;;5062326;28;20435;-60
2021/03/13 05:25:16;;;;;;;2.20;1.10;;;6.10;83.10;;;;;;5065594;28;20098;-60
2021/03/13 05:27:43;;;;;;;4.13;1.67;;;6.20;82.80;;;;;;5060124;28;20126;-59
2021/03/13 05:30:10;;;;;;;1.83;1.23;;;6.30;82.30;;;;;;5061495;28;20036;-60
2021/03/13 05:32:37;;;;;;;1.52;1.13;;;6.40;82.10;;;;;;5056828;28;20039;-60
2021/03/13 05:35:05;;;;;;;2.15;1.25;;;6.50;82.20;;;;;;5066707;28;20040;-60
2021/03/13 05:37:31;;;;;;;2.35;1.20;;;6.50;82.00;;;;;;5065483;28;20520;-61
2021/03/13 05:39:57;;;;;;;2.13;1.20;;;6.60;81.80;;;;;;5070397;28;20036;-61
2021/03/13 05:42:23;;;;;;;4.72;1.88;;;6.70;81.00;;;;;;5061172;28;20039;-60
2021/03/13 05:44:51;;;;;;;2.38;1.48;;;6.70;81.20;;;;;;5053791;28;20149;-60
2021/03/13 05:47:20;;;;;;;3.13;1.85;;;6.80;80.60;;;;;;5063826;28;20039;-61
2021/03/13 05:49:56;;;;;;;2.88;1.40;;;6.80;80.90;;;;;;5063457;28;20033;-61
2021/03/13 05:52:23;;;;;;;5.68;2.05;;;6.80;80.30;;;;;;5063121;28;20581;-61
2021/03/13 05:54:52;;;;;;;4.55;1.45;;;6.80;80.10;;;;;;5056599;28;20101;-61
2021/03/13 05:57:18;;;;;;;4.53;1.42;;;6.80;80.20;;;;;;5061805;28;20024;-60
2021/03/13 05:59:44;;;;;;;2.72;1.33;;;6.80;80.30;;;;;;5058188;28;20148;-61
2021/03/13 06:02:10;;;;;;;1.85;1.45;;;6.80;80.00;;;;;;5058609;28;20256;-61
2021/03/13 06:04:35;;;;;;;2.00;1.67;;;6.90;80.00;;;;;;5059816;28;20043;-61
2021/03/13 06:07:02;;;;;;;3.58;1.70;;;6.90;79.90;;;;;;5062186;28;20028;-60
2021/03/13 06:09:27;;;;;;;2.05;1.13;;;6.90;79.40;;;;;;5058908;28;20087;-61
2021/03/13 06:11:53;;;;;;;2.00;1.27;;;6.90;79.30;;;;;;5071911;28;20031;-60
2021/03/13 06:14:19;;;;;;;2.42;1.58;;;7.00;78.60;;;;;;5071622;28;20031;-60
2021/03/13 06:16:46;;;;;;;1.30;1.15;;;7.10;78.70;;;;;;5066710;28;20793;-61
2021/03/13 06:19:12;;;;;;;1.40;1.30;;;7.20;77.90;;;;;;5062740;28;20536;-60
2021/03/13 06:21:39;;;;;;;3.50;1.38;;;7.20;77.90;;;;;;5058848;28;20041;-61
2021/03/13 06:24:08;;;;;;;1.05;0.95;;;7.20;77.50;;;;;;5067162;28;20036;-60
2021/03/13 06:26:51;;;;;;;1.48;1.38;;;7.20;77.80;;;;;;5063388;28;20419;-61
2021/03/13 06:29:16;;;;;;;2.83;1.50;;;7.30;77.60;;;;;;5063707;28;20036;-60
2021/03/13 06:31:42;;;;;;;2.17;1.33;;;7.40;76.90;;;;;;5059805;28;20044;-60
2021/03/13 06:34:24;;;;;;;2.42;1.30;;;7.40;76.40;;;;;;5061838;28;20036;-60
2021/03/13 06:36:50;;;;;;;3.55;1.60;;;7.40;76.80;;;;;;5057217;28;20637;-60
2021/03/13 06:39:16;;;;;;;1.63;1.30;;;7.40;77.00;;;;;;5064879;28;20032;-61
2021/03/13 06:41:41;;;;;;;4.30;1.50;;;7.50;76.40;;;;;;5059741;28;20811;-60
2021/03/13 06:44:15;;;;;;;1.90;1.20;;;7.50;76.40;;;;;;5060996;28;20106;-60
2021/03/13 06:46:41;;;;;;;3.97;1.48;;;7.60;76.60;;;;;;5057954;28;20118;-60
2021/03/13 06:49:07;;;;;;;2.75;1.33;;;7.60;76.60;;;;;;5055112;28;20069;-61
2021/03/13 06:51:37;;;;;;;3.40;1.10;;;7.60;77.20;;;;;;5059764;28;20041;-61
2021/03/13 06:54:12;;;;;;;1.75;1.33;;;7.70;76.20;;;;;;5066767;28;20417;-62
2021/03/13 06:56:55;;;;;;;2.33;1.40;;;7.70;76.80;;;;;;5064028;28;20139;-60
2021/03/13 06:59:32;;;;;;;4.20;1.52;;;7.70;77.40;;;;;;5075075;28;20034;-60
2021/03/13 07:02:05;;;;;;;2.05;1.50;;;7.60;78.60;;;;;;5064888;28;20040;-60
2021/03/13 07:04:40;;;;;;;1.60;1.45;;;7.60;79.40;;;;;;5066336;28;20048;-63
2021/03/13 07:07:07;;;;;;;3.85;1.73;;;7.60;79.50;;;;;;5069112;28;20636;-60
2021/03/13 07:09:52;;;;;;;3.90;1.83;;;7.60;80.50;;;;;;5067852;28;20467;-60
2021/03/13 07:12:26;;;;;;;4.00;1.75;;;7.60;80.40;;;;;;5070989;28;20514;-60
2021/03/13 07:14:53;;;;;;;3.22;2.00;;;7.60;80.70;;;;;;5060610;28;20138;-60
2021/03/13 07:17:20;;;;;;;3.08;1.70;;;7.60;80.60;;;;;;5063298;28;20028;-60
2021/03/13 07:19:46;;;;;;;3.58;1.45;;;7.70;80.60;;;;;;5061226;28;20031;-60
2021/03/13 07:22:13;;;;;;;3.28;1.38;;;7.70;80.40;;;;;;5064877;28;20768;-60
2021/03/13 07:24:41;;;;;;;1.65;1.33;;;7.80;79.90;;;;;;5066556;28;20594;-59
2021/03/13 07:27:10;;;;;;;2.28;1.50;;;7.90;79.60;;;;;;5060475;28;20044;-60
2021/03/13 07:29:38;;;;;;;2.17;1.67;;;7.80;80.70;;;;;;5059760;28;20809;-64
2021/03/13 07:32:05;;;;;;;3.50;1.70;;;7.80;80.80;;;;;;5064707;28;20093;-60
2021/03/13 07:34:36;;;;;;;3.50;1.75;;;7.80;81.20;;;;;;5057954;28;20123;-61
2021/03/13 07:37:02;;;;;;;4.45;1.70;;;7.80;81.30;;;;;;5062139;28;20048;-60
2021/03/13 07:39:33;;;;;;;1.83;1.67;;;7.90;81.20;;;;;;5061020;28;20036;-60
2021/03/13 07:42:16;;;;;;;6.03;1.92;;;8.00;80.40;;;;;;5064922;28;20039;-61
2021/03/13 07:44:43;;;;;;;2.72;1.92;;;8.10;80.20;;;;;;5065062;28;20995;-61
2021/03/13 07:47:17;;;;;;;1.80;1.52;;;8.10;80.00;;;;;;5060470;28;20093;-60
2021/03/13 07:49:43;;;;;;;3.25;1.80;;;8.10;80.00;;;;;;5066218;28;20032;-61
2021/03/13 07:52:10;;;;;;;2.85;1.70;;;8.10;80.60;;;;;;5056135;28;20024;-61
2021/03/13 07:54:40;;;;;;;3.53;2.03;;;8.00;81.10;;;;;;5058109;28;20437;-60
2021/03/13 07:57:07;;;;;;;3.55;1.92;;;8.00;81.00;;;;;;5063466;28;20048;-60
2021/03/13 07:59:48;;;;;;;2.65;1.95;;;8.00;81.60;;;;;;5061998;28;20037;-60
2021/03/13 08:02:29;;;;;;;2.97;1.83;;;8.00;82.10;;;;;;5062804;28;20043;-61
2021/03/13 08:05:00;;;;;;;6.32;1.80;;;8.00;82.00;;;;;;5043317;28;20092;-61
2021/03/13 08:07:49;;;;;;;2.10;1.52;;;8.00;82.00;;;;;;5057025;28;20427;-60
2021/03/13 08:10:40;;;;;;;4.50;2.13;;;8.00;82.10;;;;;;5057450;28;20051;-61
2021/03/13 08:13:06;;;;;;;4.30;1.80;;;8.10;82.10;;;;;;5055210;28;20043;-61
2021/03/13 08:15:32;;;;;;;1.85;1.65;;;8.10;81.70;;;;;;5056640;28;20040;-60
2021/03/13 08:17:58;;;;;;;3.20;2.03;;;8.10;82.40;;;;;;5052767;28;20031;-60
2021/03/13 08:20:32;;;;;;;3.15;1.90;;;8.10;82.20;;;;;;5049004;28;20113;-61
2021/03/13 08:23:18;;;;;;;3.58;1.80;;;8.10;82.30;;;;;;5051440;28;20040;-60
2021/03/13 08:25:55;;;;;;;2.13;1.52;;;8.10;82.40;;;;;;5056205;28;20128;-62
2021/03/13 08:28:45;;;;;;;2.03;1.60;;;8.10;82.50;;;;;;5057534;28;20028;-61
2021/03/13 08:31:23;;;;;;;2.50;1.75;;;8.10;82.40;;;;;;5055125;28;20789;-60
2021/03/13 08:33:49;;;;;;;3.28;1.80;;;8.10;82.80;;;;;;5052486;28;20047;-61
2021/03/13 08:36:16;;;;;;;2.05;1.80;;;8.10;82.60;;;;;;5057189;28;20072;-61
2021/03/13 08:38:55;;;;;;;3.55;2.00;;;8.10;82.90;;;;;;5058094;28;20040;-61
2021/03/13 08:41:40;;;;;;;3.97;1.67;;;8.10;83.00;;;;;;5058057;28;20033;-61
2021/03/13 08:44:06;;;;;;;2.05;1.65;;;8.10;82.60;;;;;;5053197;28;20041;-61
2021/03/13 08:46:45;;;;;;;3.13;1.95;;;8.10;83.20;;;;;;5048957;28;20043;-61
2021/03/13 08:49:32;;;;;;;2.10;1.55;;;8.00;83.40;;;;;;5056497;28;20808;-61
2021/03/13 08:52:07;;;;;;;2.55;1.63;;;8.00;83.30;;;;;;5057128;28;20032;-61
2021/03/13 08:54:41;;;;;;;3.45;1.70;;;8.10;83.30;;;;;;5057575;28;20115;-64
2021/03/13 08:57:38;;;;;;;2.42;1.70;;;8.00;83.60;;;;;;5057002;28;20040;-62
2021/03/13 09:00:05;;;;;;;2.37;1.73;;;8.00;83.90;;;;;;5052360;28;20044;-62
2021/03/13 09:02:36;;;;;;;3.10;1.70;;;8.00;84.50;;;;;;5056727;28;20040;-64
2021/03/13 09:05:28;;;;;;;2.05;1.85;;;7.90;84.10;;;;;;5057418;28;20055;-66
2021/03/13 09:07:58;;;;;;;2.90;1.77;;;8.00;84.90;;;;;;5055203;28;20094;-64
2021/03/13 09:10:24;;;;;;;2.90;1.77;;;8.00;84.60;;;;;;5051045;28;20059;-62
2021/03/13 09:12:50;;;;;;;1.98;1.65;;;8.00;84.90;;;;;;5059446;28;20477;-62
2021/03/13 09:15:16;;;;;;;2.63;1.50;;;8.00;84.90;;;;;;5059222;28;20024;-64
2021/03/13 09:17:42;;;;;;;4.18;1.98;;;8.00;84.90;;;;;;5059639;28;20040;-63
2021/03/13 09:20:10;;;;;;;1.90;1.40;;;8.10;85.80;;;;;;5057353;28;20766;-67
2021/03/13 09:22:41;;;;;;;2.22;1.50;;;8.10;84.60;;;;;;5070378;28;20036;-63
2021/03/13 09:25:25;;;;;;;3.13;1.70;;;8.10;84.40;;;;;;5053011;28;20028;-61
2021/03/13 09:27:52;;;;;;;2.03;1.70;;;8.20;84.90;;;;;;5052648;28;20036;-66
2021/03/13 09:30:22;;;;;;;2.97;1.90;;;8.20;84.60;;;;;;5054532;28;20033;-61
2021/03/13 09:32:50;;;;;;;3.95;1.67;;;8.30;84.40;;;;;;5056577;28;20028;-62
2021/03/13 09:35:16;;;;;;;1.70;1.50;;;8.40;84.10;;;;;;5056292;28;20029;-62
2021/03/13 09:37:43;;;;;;;3.50;1.48;;;8.40;83.90;;;;;;5056122;28;20036;-62
2021/03/13 09:40:20;;;;;;;2.40;1.20;;;8.30;83.80;;;;;;5057415;28;20040;-62
2021/03/13 09:42:48;;;;;;;1.95;1.58;;;8.40;84.50;;;;;;5056657;28;20043;-62
2021/03/13 09:45:16;;;;;;;3.05;1.25;;;8.50;83.20;;;;;;5056886;28;20646;-62
2021/03/13 09:47:47;;;;;;;1.65;1.02;;;8.60;83.50;;;;;;5052071;28;20455;-61
2021/03/13 09:50:34;;;;;;;5.35;1.38;;;8.50;84.00;;;;;;5057062;28;20048;-65
2021/03/13 09:53:01;;;;;;;1.42;1.00;;;8.60;84.10;;;;;;5046446;28;20029;-61
2021/03/13 09:55:29;;;;;;;4.13;1.25;;;8.60;83.50;;;;;;5056471;28;20396;-61
2021/03/13 09:57:56;;;;;;;1.60;1.10;;;8.70;84.10;;;;;;5047131;28;20025;-64
2021/03/13 10:00:26;;;;;;;1.60;1.00;;;8.80;84.90;;;;;;5054909;28;20053;-61
2021/03/13 10:02:53;;;;;;;1.80;1.20;;;9.00;82.70;;;;;;5056931;28;20052;-64
2021/03/13 10:05:22;;;;;;;1.15;1.05;;;9.10;82.20;;;;;;5054220;28;20043;-61
2021/03/13 10:07:50;;;;;;;8.63;3.72;;;9.20;82.00;;;;;;5056726;28;20047;-60
2021/03/13 10:10:21;;;;;;;0.80;0.80;;;9.30;81.80;;;;;;5056755;28;20032;-61
2021/03/13 10:12:48;;;;;;;3.85;1.00;;;9.30;80.80;;;;;;5056271;28;20102;-61
2021/03/13 10:15:25;;;;;;;0.93;0.80;;;9.40;81.50;;;;;;5056543;28;20119;-61
2021/03/13 10:17:58;;;;;;;1.85;0.90;;;9.30;81.00;;;;;;5051608;28;20033;-61
2021/03/13 10:20:33;;;;;;;0.82;0.70;;;9.40;80.80;;;;;;5054837;28;20033;-61
2021/03/13 10:23:11;;;;;;;0.73;0.73;;;9.50;80.90;;;;;;5056243;28;20042;-63
2021/03/13 10:25:39;;;;;;;1.55;0.80;;;9.60;81.10;;;;;;5057550;28;20040;-61
2021/03/13 10:28:14;;;;;;;0.63;0.60;;;9.70;80.60;;;;;;5037759;28;20147;-62
2021/03/13 10:30:43;;;;;;;0.52;0.50;;;9.60;79.70;;;;;;5057140;28;20032;-63
2021/03/13 10:33:10;;;;;;;0.68;0.68;;;9.70;80.20;;;;;;5059985;28;20641;-63
2021/03/13 10:35:36;;;;;;;0.68;0.60;;;9.70;79.50;;;;;;5059650;28;20582;-61
2021/03/13 10:38:20;;;;;;;1.58;0.80;;;9.60;80.50;;;;;;5059804;28;20862;-62
2021/03/13 10:40:54;;;;;;;0.40;0.30;;;9.70;81.00;;;;;;5059403;28;20037;-62
2021/03/13 10:43:25;;;;;;;0.50;0.50;;;9.60;79.50;;;;;;5059757;28;20254;-59
2021/03/13 10:46:10;;;;;;;2.45;0.80;;;9.60;79.50;;;;;;5058645;28;20032;-61
2021/03/13 10:48:55;;;;;;;0.73;0.50;;;9.60;79.60;;;;;;5056559;28;20048;-60
2021/03/13 10:51:30;;;;;;;1.00;0.38;;;9.80;79.40;;;;;;5059801;28;20040;-60
2021/03/13 10:53:58;;;;;;;3.33;0.70;;;9.80;79.40;;;;;;5054251;28;20040;-60
2021/03/13 10:56:36;;;;;;;1.13;0.52;;;9.80;78.80;;;;;;5058192;28;20024;-60
2021/03/13 10:59:02;;;;;;;0.55;0.43;;;9.90;78.20;;;;;;5059728;28;20213;-60
2021/03/13 11:01:27;;;;;;;0.65;0.40;;;9.90;78.40;;;;;;5053703;28;20033;-60
2021/03/13 11:03:56;;;;;;;0.32;0.32;;;9.90;79.30;;;;;;5059605;28;20634;-60
2021/03/13 11:06:25;;;;;;;0.32;0.32;;;9.90;78.70;;;;;;5052785;28;20404;-60
2021/03/13 11:08:52;;;;;;;0.63;0.30;;;10.00;78.90;;;;;;5058928;28;20052;-60
2021/03/13 11:11:18;;;;;;;0.95;0.63;;;10.10;78.10;;;;;;5058852;28;20040;-60
2021/03/13 11:13:44;;;;;;;1.65;0.63;;;10.10;77.20;;;;;;5066127;28;20220;-60
2021/03/13 11:16:10;;;;;;;0.80;0.38;;;10.20;77.80;;;;;;5107288;27;20032;-60
2021/03/13 11:18:35;;;;;;;0.43;0.43;;;10.20;77.10;;;;;;5111509;27;20045;-60
2021/03/13 11:21:02;;;;;;;0.90;0.75;;;10.30;77.10;;;;;;5104458;27;20039;-60
2021/03/13 11:23:27;;;;;;;0.40;0.40;;;10.40;77.80;;;;;;5107462;27;20372;-59
2021/03/13 11:25:53;;;;;;;1.25;0.77;;;10.50;77.20;;;;;;5106597;27;20027;-58
2021/03/13 11:28:19;;;;;;;0.63;0.32;;;10.70;77.00;;;;;;5112242;27;20027;-60
2021/03/13 11:30:44;;;;;;;0.40;0.40;;;11.00;74.60;;;;;;5108782;27;20035;-60
2021/03/13 11:33:10;;;;;;;1.88;0.50;;;11.20;73.50;;;;;;5105558;27;20024;-60
2021/03/13 11:35:37;;;;;;;1.23;0.70;;;11.10;73.30;;;;;;5103124;27;20028;-60
2021/03/13 11:38:03;;;;;;;1.08;0.68;;;11.10;74.60;;;;;;5106139;27;20042;-60
2021/03/13 11:40:29;;;;;;;1.98;0.50;;;11.20;73.60;;;;;;5113198;27;20023;-60
2021/03/13 11:42:55;;;;;;;1.00;0.55;;;11.30;74.00;;;;;;5101185;27;20043;-60
2021/03/13 11:45:22;;;;;;;1.63;0.50;;;11.20;73.40;;;;;;5108110;27;20035;-59
2021/03/13 11:47:49;;;;;;;0.95;0.63;;;11.20;73.80;;;;;;5106044;27;20031;-61
2021/03/13 11:50:18;;;;;;;5.55;2.60;;;11.40;74.40;;;;;;5114449;27;20034;-61
2021/03/13 11:52:43;;;;;;;1.13;0.65;;;11.60;73.20;;;;;;5107240;27;20035;-60
2021/03/13 11:55:10;;;;;;;3.97;1.10;;;12.10;69.70;;;;;;5102787;27;20975;-61
2021/03/13 11:57:37;;;;;;;1.40;0.40;;;12.30;68.80;;;;;;5104208;27;20023;-61
2021/03/13 12:00:05;;;;;;;0.52;0.20;;;12.00;67.20;;;;;;5101798;27;20036;-61
2021/03/13 12:02:31;;;;;;;0.98;0.55;;;11.90;69.30;;;;;;5101045;27;20047;-61
2021/03/13 12:04:57;;;;;;;0.75;0.52;;;11.90;69.00;;;;;;5101213;27;20036;-61
2021/03/13 12:07:23;;;;;;;1.92;0.52;;;12.00;69.20;;;;;;5106422;27;20043;-60
2021/03/13 12:09:49;;;;;;;1.98;1.30;;;12.10;67.90;;;;;;5101520;27;20066;-62
2021/03/13 12:12:14;;;;;;;4.05;1.65;;;12.10;67.80;;;;;;5116512;27;20067;-61
2021/03/13 12:14:40;;;;;;;5.10;2.10;;;12.20;67.60;;;;;;5106855;27;20110;-61
2021/03/13 12:17:11;;;;;;;0.82;0.30;;;12.20;66.30;;;;;;5107728;27;20054;-62
2021/03/13 12:19:40;;;;;;;3.60;0.30;;;12.00;66.80;;;;;;5104688;27;20060;-61
2021/03/13 12:22:06;;;;;;;2.42;2.20;;;11.90;66.90;;;;;;5096278;27;20227;-61
2021/03/13 12:24:33;;;;;;;5.03;3.25;;;11.90;67.00;;;;;;5102556;27;20028;-61
2021/03/13 12:26:59;;;;;;;7.28;2.38;;;12.00;66.40;;;;;;5100456;27;20873;-61
2021/03/13 12:29:24;;;;;;;5.28;3.45;;;11.90;66.40;;;;;;5103760;27;20118;-62
2021/03/13 12:31:50;;;;;;;3.97;2.08;;;12.00;66.70;;;;;;5103015;27;20100;-63
2021/03/13 12:34:16;;;;;;;0.40;0.30;;;12.70;66.50;;;;;;5106953;27;20126;-61
2021/03/13 12:36:42;;;;;;;1.17;0.50;;;12.80;63.90;;;;;;5105182;27;20143;-61
2021/03/13 12:39:07;;;;;;;4.72;2.67;;;12.70;63.00;;;;;;5102324;27;20031;-60
2021/03/13 12:41:34;;;;;;;9.30;4.28;;;12.50;63.70;;;;;;5107278;27;20475;-61
2021/03/13 12:44:00;;;;;;;2.15;1.40;;;12.40;65.10;;;;;;5097132;27;20049;-61
2021/03/13 12:46:26;;;;;;;3.00;0.77;;;12.10;64.40;;;;;;5106231;27;20885;-60
2021/03/13 12:48:52;;;;;;;8.30;4.70;;;12.00;65.60;;;;;;5103566;27;20399;-60
2021/03/13 12:51:18;;;;;;;4.85;2.50;;;11.80;65.80;;;;;;5105927;27;20031;-60
2021/03/13 12:53:46;;;;;;;3.00;1.90;;;11.70;67.30;;;;;;5097004;28;20051;-60
2021/03/13 12:56:12;;;;;;;0.75;0.63;;;11.50;66.80;;;;;;5105894;27;20046;-61
2021/03/13 12:58:38;;;;;;;1.90;1.25;;;11.40;67.30;;;;;;5101466;27;20134;-61
2021/03/13 13:01:04;;;;;;;5.97;1.75;;;11.30;68.20;;;;;;5106869;27;20491;-60
2021/03/13 13:03:30;;;;;;;1.70;1.05;;;11.20;68.30;;;;;;5102085;27;20136;-60
2021/03/13 13:05:56;;;;;;;5.00;1.90;;;10.90;68.70;;;;;;5101942;27;20266;-59
2021/03/13 13:08:22;;;;;;;0.43;0.40;;;10.50;70.60;;;;;;5109419;27;20054;-60